Terminal Aerodrome Forecast
Issued by NWS

Home | Current Version | Previous Version | Text Only | Print | Product List | Glossary On
Versions: 1 2 3 4 5 6 7 8 9 10 11 12
000
FTUS45 KVEF 191733
TAFVGT
TAF
KVGT 191733Z 1918/2018 VRB05KT P6SM FEW180 BKN250
     FM192000 19010KT P6SM FEW180 BKN250
     FM192200 21013G21KT P6SM SCT180 BKN250
     FM200200 22010KT P6SM SCT180 BKN250
     FM200500 24013G21KT P6SM SCT070 BKN150
     FM201000 27012G20KT P6SM SCT100 SCT150
     FM201300 32017G27KT P6SM SCT120 BKN150=

USA.gov is the U.S. government's official web portal to all federal, state and local government web resources and services.